Time,TemperatureF,DewpointF,PressureIn,WindDirection,WindDirectionDegrees,WindSpeedMPH,WindSpeedGustMPH,Humidity,HourlyPrecipIn,Conditions,Clouds,dailyrainin,SoftwareType,DateUTC
2013-10-05 00:42:00,47.0,8.0,29.77,East,90,18.0,25.0,20,0.00,,,-99.99,,2013-10-05 07:42:00,
2013-10-05 00:52:00,47.0,8.0,29.77,East,90,18.0,25.0,20,0.00,,,-99.99,,2013-10-05 07:52:00,
2013-10-05 01:42:00,47.0,10.0,29.78,East,90,14.0,25.0,22,0.00,,,-99.99,,2013-10-05 08:42:00,
2013-10-05 01:52:00,47.0,10.0,29.78,East,90,14.0,25.0,22,0.00,,,-99.99,,2013-10-05 08:52:00,
2013-10-05 02:43:00,47.0,12.0,29.79,East,90,17.0,32.0,24,0.00,,,-99.99,,2013-10-05 09:43:00,
2013-10-05 02:54:00,47.0,12.0,29.79,East,90,17.0,32.0,24,0.00,,,-99.99,,2013-10-05 09:54:00,
2013-10-05 03:43:00,47.0,12.0,29.77,East,90,24.0,31.0,24,0.00,,,-99.99,,2013-10-05 10:43:00,
2013-10-05 03:53:00,47.0,12.0,29.77,East,90,24.0,31.0,24,0.00,,,-99.99,,2013-10-05 10:53:00,
2013-10-05 04:42:00,47.0,9.0,29.77,East,90,19.0,31.0,21,0.00,,,-99.99,,2013-10-05 11:42:00,
2013-10-05 04:52:00,47.0,9.0,29.77,East,90,19.0,31.0,21,0.00,,,-99.99,,2013-10-05 11:52:00,
2013-10-05 05:42:00,46.0,10.0,29.77,East,90,33.0,33.0,23,0.00,,,-99.99,,2013-10-05 12:42:00,
2013-10-05 05:52:00,46.0,10.0,29.77,East,90,33.0,33.0,23,0.00,,,-99.99,,2013-10-05 12:52:00,
2013-10-05 06:42:00,45.0,9.0,29.79,East,90,21.0,25.0,23,0.00,,,-99.99,,2013-10-05 13:42:00,
2013-10-05 06:52:00,45.0,9.0,29.79,East,90,21.0,25.0,23,0.00,,,-99.99,,2013-10-05 13:52:00,
2013-10-05 07:22:00,45.0,9.0,29.79,East,90,26.0,26.0,23,0.00,,,-99.99,,2013-10-05 14:22:00,
2013-10-05 07:32:00,45.0,9.0,29.79,East,90,26.0,26.0,23,0.00,,,-99.99,,2013-10-05 14:32:00,
2013-10-05 07:42:00,45.0,9.0,29.79,East,90,26.0,26.0,23,0.00,,,-99.99,,2013-10-05 14:42:00,
2013-10-05 07:52:00,45.0,9.0,29.79,East,90,26.0,26.0,23,0.00,,,-99.99,,2013-10-05 14:52:00,
2013-10-05 08:44:00,46.0,10.0,29.81,East,90,16.0,20.0,23,0.00,,,-99.99,,2013-10-05 15:44:00,
2013-10-05 08:53:00,46.0,10.0,29.81,East,90,16.0,20.0,23,0.00,,,-99.99,,2013-10-05 15:53:00,
2013-10-05 09:23:00,47.0,10.0,29.82,East,90,27.0,27.0,22,0.00,,,-99.99,,2013-10-05 16:23:00,
2013-10-05 09:33:00,47.0,10.0,29.82,East,90,27.0,27.0,22,0.00,,,-99.99,,2013-10-05 16:33:00,
2013-10-05 09:43:00,47.0,10.0,29.82,East,90,27.0,27.0,22,0.00,,,-99.99,,2013-10-05 16:43:00,
2013-10-05 09:53:00,47.0,10.0,29.82,East,90,27.0,27.0,22,0.00,,,-99.99,,2013-10-05 16:53:00,
2013-10-05 10:42:00,49.0,12.0,29.85,East,90,16.0,16.0,22,0.00,,,-99.99,,2013-10-05 17:42:00,
2013-10-05 10:52:00,49.0,12.0,29.85,East,90,16.0,16.0,22,0.00,,,-99.99,,2013-10-05 17:52:00,
2013-10-05 11:22:00,49.0,7.0,29.83,East,90,23.0,25.0,18,0.00,,,-99.99,,2013-10-05 18:22:00,
2013-10-05 11:32:00,49.0,7.0,29.83,East,90,23.0,25.0,18,0.00,,,-99.99,,2013-10-05 18:32:00,
2013-10-05 11:42:00,49.0,7.0,29.83,East,90,23.0,25.0,18,0.00,,,-99.99,,2013-10-05 18:42:00,
2013-10-05 12:22:00,51.0,4.0,29.85,East,80,25.0,25.0,14,0.00,,,-99.99,,2013-10-05 19:22:00,
2013-10-05 12:32:00,51.0,4.0,29.85,East,80,25.0,25.0,14,0.00,,,-99.99,,2013-10-05 19:32:00,
2013-10-05 12:42:00,51.0,4.0,29.85,East,80,25.0,25.0,14,0.00,,,-99.99,,2013-10-05 19:42:00,
2013-10-05 12:52:00,51.0,4.0,29.85,East,80,25.0,25.0,14,0.00,,,-99.99,,2013-10-05 19:52:00,
2013-10-05 13:42:00,53.0,8.0,29.83,East,80,20.0,23.0,16,0.00,,,-99.99,,2013-10-05 20:42:00,
2013-10-05 13:52:00,53.0,8.0,29.83,East,80,20.0,23.0,16,0.00,,,-99.99,,2013-10-05 20:52:00,
2013-10-05 14:44:00,54.0,6.0,29.81,East,80,17.0,17.0,14,0.00,,,-99.99,,2013-10-05 21:44:00,
2013-10-05 14:54:00,54.0,6.0,29.81,East,80,17.0,17.0,14,0.00,,,-99.99,,2013-10-05 21:54:00,
2013-10-05 15:42:00,55.0,5.0,29.81,East,80,18.0,18.0,13,0.00,,,-99.99,,2013-10-05 22:42:00,
2013-10-05 15:53:00,55.0,5.0,29.81,East,80,18.0,18.0,13,0.00,,,-99.99,,2013-10-05 22:53:00,
2013-10-05 16:42:00,54.0,9.0,29.82,East,80,18.0,18.0,16,0.00,,,-99.99,,2013-10-05 23:42:00,
2013-10-05 16:53:00,54.0,9.0,29.82,East,80,18.0,18.0,16,0.00,,,-99.99,,2013-10-05 23:53:00,
2013-10-05 17:43:00,53.0,9.0,29.82,East,80,15.0,15.0,17,0.00,,,-99.99,,2013-10-06 00:43:00,
2013-10-05 17:52:00,53.0,9.0,29.82,East,80,15.0,15.0,17,0.00,,,-99.99,,2013-10-06 00:52:00,
2013-10-05 18:42:00,52.0,9.0,29.81,East,80,16.0,16.0,17,0.00,,,-99.99,,2013-10-06 01:42:00,
2013-10-05 18:52:00,52.0,9.0,29.81,East,80,16.0,16.0,17,0.00,,,-99.99,,2013-10-06 01:52:00,
2013-10-05 19:42:00,51.0,9.0,29.83,ENE,70,12.0,15.0,18,0.00,,,-99.99,,2013-10-06 02:42:00,
2013-10-05 19:52:00,51.0,9.0,29.83,ENE,70,12.0,15.0,18,0.00,,,-99.99,,2013-10-06 02:52:00,
2013-10-05 20:44:00,52.0,10.0,29.83,ENE,70,8.0,10.0,18,0.00,,,-99.99,,2013-10-06 03:44:00,
2013-10-05 20:54:00,52.0,10.0,29.83,ENE,70,8.0,10.0,18,0.00,,,-99.99,,2013-10-06 03:54:00,
2013-10-05 21:44:00,52.0,10.0,29.82,ENE,70,14.0,14.0,18,0.00,,,-99.99,,2013-10-06 04:44:00,
2013-10-05 21:54:00,52.0,10.0,29.82,ENE,70,14.0,14.0,18,0.00,,,-99.99,,2013-10-06 04:54:00,
2013-10-05 22:42:00,52.0,10.0,29.80,East,80,21.0,31.0,18,0.00,,,-99.99,,2013-10-06 05:42:00,
2013-10-05 22:52:00,52.0,10.0,29.80,East,80,21.0,31.0,18,0.00,,,-99.99,,2013-10-06 05:52:00,
2013-10-05 23:42:00,52.0,10.0,29.79,East,90,24.0,28.0,18,0.00,,,-99.99,,2013-10-06 06:42:00,
2013-10-05 23:52:00,52.0,10.0,29.79,East,90,24.0,28.0,18,0.00,,,-99.99,,2013-10-06 06:52:00,